sensor_id;sensor_type;location;lat;lon;timestamp;P1;durP1;ratioP1;P2;durP2;ratioP2
33844;SDS011;20145;43.118;25.694;2023-04-25T00:01:03;10.30;;;9.35;;
33844;SDS011;20145;43.118;25.694;2023-04-25T00:03:30;11.93;;;10.57;;
33844;SDS011;20145;43.118;25.694;2023-04-25T00:05:57;11.55;;;10.45;;
33844;SDS011;20145;43.118;25.694;2023-04-25T00:08:26;12.23;;;11.13;;
33844;SDS011;20145;43.118;25.694;2023-04-25T00:10:52;11.10;;;10.10;;
33844;SDS011;20145;43.118;25.694;2023-04-25T00:13:18;12.32;;;11.07;;
33844;SDS011;20145;43.118;25.694;2023-04-25T00:15:44;11.90;;;10.73;;
33844;SDS011;20145;43.118;25.694;2023-04-25T00:18:11;11.07;;;10.00;;
33844;SDS011;20145;43.118;25.694;2023-04-25T00:20:37;11.32;;;10.20;;
33844;SDS011;20145;43.118;25.694;2023-04-25T00:23:02;10.30;;;9.30;;
33844;SDS011;20145;43.118;25.694;2023-04-25T00:25:28;10.85;;;9.90;;
33844;SDS011;20145;43.118;25.694;2023-04-25T00:27:54;13.18;;;11.77;;
33844;SDS011;20145;43.118;25.694;2023-04-25T00:30:20;17.88;;;15.98;;
33844;SDS011;20145;43.118;25.694;2023-04-25T00:32:45;17.15;;;15.10;;
33844;SDS011;20145;43.118;25.694;2023-04-25T00:35:11;17.05;;;14.80;;
33844;SDS011;20145;43.118;25.694;2023-04-25T00:37:36;17.15;;;15.18;;
33844;SDS011;20145;43.118;25.694;2023-04-25T00:40:04;17.15;;;14.90;;
33844;SDS011;20145;43.118;25.694;2023-04-25T00:42:31;17.00;;;15.40;;
33844;SDS011;20145;43.118;25.694;2023-04-25T00:44:57;17.13;;;14.65;;
33844;SDS011;20145;43.118;25.694;2023-04-25T00:47:24;16.27;;;14.68;;
33844;SDS011;20145;43.118;25.694;2023-04-25T00:49:50;17.55;;;15.73;;
33844;SDS011;20145;43.118;25.694;2023-04-25T00:52:16;17.73;;;15.30;;
33844;SDS011;20145;43.118;25.694;2023-04-25T00:54:42;17.20;;;15.30;;
33844;SDS011;20145;43.118;25.694;2023-04-25T00:57:08;16.23;;;14.65;;
33844;SDS011;20145;43.118;25.694;2023-04-25T00:59:33;17.50;;;15.85;;
33844;SDS011;20145;43.118;25.694;2023-04-25T01:02:01;17.48;;;15.75;;
33844;SDS011;20145;43.118;25.694;2023-04-25T01:04:29;18.95;;;17.15;;
33844;SDS011;20145;43.118;25.694;2023-04-25T01:06:55;17.58;;;15.75;;
33844;SDS011;20145;43.118;25.694;2023-04-25T01:09:22;17.25;;;15.52;;
33844;SDS011;20145;43.118;25.694;2023-04-25T01:11:48;16.85;;;15.25;;
33844;SDS011;20145;43.118;25.694;2023-04-25T01:14:14;15.60;;;14.15;;
33844;SDS011;20145;43.118;25.694;2023-04-25T01:16:40;15.27;;;13.75;;
33844;SDS011;20145;43.118;25.694;2023-04-25T01:19:09;16.27;;;14.57;;
33844;SDS011;20145;43.118;25.694;2023-04-25T01:21:38;16.70;;;14.20;;
33844;SDS011;20145;43.118;25.694;2023-04-25T01:24:04;14.85;;;13.35;;
33844;SDS011;20145;43.118;25.694;2023-04-25T01:26:30;14.98;;;12.95;;
33844;SDS011;20145;43.118;25.694;2023-04-25T01:28:57;12.88;;;11.68;;
33844;SDS011;20145;43.118;25.694;2023-04-25T01:31:23;14.32;;;13.02;;
33844;SDS011;20145;43.118;25.694;2023-04-25T01:33:49;15.35;;;13.80;;
33844;SDS011;20145;43.118;25.694;2023-04-25T01:36:15;15.65;;;14.18;;
33844;SDS011;20145;43.118;25.694;2023-04-25T01:38:41;13.93;;;12.63;;
33844;SDS011;20145;43.118;25.694;2023-04-25T01:41:09;15.57;;;14.15;;
33844;SDS011;20145;43.118;25.694;2023-04-25T01:43:35;15.77;;;14.35;;
33844;SDS011;20145;43.118;25.694;2023-04-25T01:46:00;17.58;;;15.88;;
33844;SDS011;20145;43.118;25.694;2023-04-25T01:48:26;15.27;;;13.80;;
33844;SDS011;20145;43.118;25.694;2023-04-25T01:50:52;15.85;;;14.38;;
33844;SDS011;20145;43.118;25.694;2023-04-25T01:53:17;15.57;;;14.00;;
33844;SDS011;20145;43.118;25.694;2023-04-25T01:55:43;15.25;;;13.75;;
33844;SDS011;20145;43.118;25.694;2023-04-25T01:58:08;13.95;;;12.60;;
33844;SDS011;20145;43.118;25.694;2023-04-25T02:00:35;13.43;;;12.23;;
33844;SDS011;20145;43.118;25.694;2023-04-25T02:03:03;12.13;;;10.93;;
33844;SDS011;20145;43.118;25.694;2023-04-25T02:05:39;12.30;;;11.10;;
33844;SDS011;20145;43.118;25.694;2023-04-25T02:08:05;12.40;;;10.95;;
33844;SDS011;20145;43.118;25.694;2023-04-25T02:10:32;12.45;;;9.98;;
33844;SDS011;20145;43.118;25.694;2023-04-25T02:12:59;13.38;;;9.88;;
33844;SDS011;20145;43.118;25.694;2023-04-25T02:15:24;12.00;;;10.80;;
33844;SDS011;20145;43.118;25.694;2023-04-25T02:17:50;17.48;;;10.52;;
33844;SDS011;20145;43.118;25.694;2023-04-25T02:20:18;10.98;;;10.02;;
33844;SDS011;20145;43.118;25.694;2023-04-25T02:22:45;11.82;;;10.63;;
33844;SDS011;20145;43.118;25.694;2023-04-25T02:25:11;10.40;;;9.40;;
33844;SDS011;20145;43.118;25.694;2023-04-25T02:27:37;10.70;;;9.60;;
33844;SDS011;20145;43.118;25.694;2023-04-25T02:30:03;11.60;;;10.15;;
33844;SDS011;20145;43.118;25.694;2023-04-25T02:32:30;12.05;;;9.80;;
33844;SDS011;20145;43.118;25.694;2023-04-25T02:34:55;10.45;;;9.43;;
33844;SDS011;20145;43.118;25.694;2023-04-25T02:37:23;10.18;;;9.25;;
33844;SDS011;20145;43.118;25.694;2023-04-25T02:39:49;11.02;;;9.82;;
33844;SDS011;20145;43.118;25.694;2023-04-25T02:42:15;11.43;;;10.30;;
33844;SDS011;20145;43.118;25.694;2023-04-25T02:44:40;11.05;;;10.07;;
33844;SDS011;20145;43.118;25.694;2023-04-25T02:47:06;12.68;;;10.95;;
33844;SDS011;20145;43.118;25.694;2023-04-25T02:49:31;12.90;;;11.50;;
33844;SDS011;20145;43.118;25.694;2023-04-25T02:51:57;12.80;;;10.13;;
33844;SDS011;20145;43.118;25.694;2023-04-25T02:54:22;11.32;;;10.30;;
33844;SDS011;20145;43.118;25.694;2023-04-25T02:56:48;14.82;;;11.27;;
33844;SDS011;20145;43.118;25.694;2023-04-25T02:59:14;13.48;;;12.07;;
33844;SDS011;20145;43.118;25.694;2023-04-25T03:01:39;12.23;;;11.05;;
33844;SDS011;20145;43.118;25.694;2023-04-25T03:04:05;11.10;;;9.98;;
33844;SDS011;20145;43.118;25.694;2023-04-25T03:06:30;11.90;;;10.80;;
33844;SDS011;20145;43.118;25.694;2023-04-25T03:08:56;11.38;;;10.25;;
33844;SDS011;20145;43.118;25.694;2023-04-25T03:11:23;10.98;;;9.88;;
33844;SDS011;20145;43.118;25.694;2023-04-25T03:13:50;11.40;;;10.18;;
33844;SDS011;20145;43.118;25.694;2023-04-25T03:16:16;11.73;;;10.43;;
33844;SDS011;20145;43.118;25.694;2023-04-25T03:18:41;13.93;;;10.85;;
33844;SDS011;20145;43.118;25.694;2023-04-25T03:21:07;11.55;;;10.10;;
33844;SDS011;20145;43.118;25.694;2023-04-25T03:23:33;11.27;;;10.18;;
33844;SDS011;20145;43.118;25.694;2023-04-25T03:25:58;16.23;;;12.45;;
33844;SDS011;20145;43.118;25.694;2023-04-25T03:28:24;12.52;;;11.32;;
33844;SDS011;20145;43.118;25.694;2023-04-25T03:30:50;13.32;;;10.15;;
33844;SDS011;20145;43.118;25.694;2023-04-25T03:33:16;11.38;;;10.23;;
33844;SDS011;20145;43.118;25.694;2023-04-25T03:35:41;18.15;;;13.23;;
33844;SDS011;20145;43.118;25.694;2023-04-25T03:38:07;13.50;;;12.20;;
33844;SDS011;20145;43.118;25.694;2023-04-25T03:40:33;13.13;;;11.45;;
33844;SDS011;20145;43.118;25.694;2023-04-25T03:42:59;17.00;;;11.55;;
33844;SDS011;20145;43.118;25.694;2023-04-25T03:45:24;12.57;;;11.02;;
33844;SDS011;20145;43.118;25.694;2023-04-25T03:47:50;11.65;;;10.52;;
33844;SDS011;20145;43.118;25.694;2023-04-25T03:50:16;10.07;;;9.07;;
33844;SDS011;20145;43.118;25.694;2023-04-25T03:52:42;10.20;;;9.20;;
33844;SDS011;20145;43.118;25.694;2023-04-25T03:55:08;16.70;;;13.23;;
33844;SDS011;20145;43.118;25.694;2023-04-25T03:57:34;12.20;;;11.00;;
33844;SDS011;20145;43.118;25.694;2023-04-25T03:59:59;10.18;;;9.18;;
33844;SDS011;20145;43.118;25.694;2023-04-25T04:02:25;11.82;;;9.95;;
33844;SDS011;20145;43.118;25.694;2023-04-25T04:04:51;10.52;;;9.52;;
33844;SDS011;20145;43.118;25.694;2023-04-25T04:07:16;13.90;;;9.68;;
33844;SDS011;20145;43.118;25.694;2023-04-25T04:09:42;10.88;;;8.85;;
33844;SDS011;20145;43.118;25.694;2023-04-25T04:12:08;8.52;;;7.68;;
33844;SDS011;20145;43.118;25.694;2023-04-25T04:14:33;10.23;;;8.00;;
33844;SDS011;20145;43.118;25.694;2023-04-25T04:16:59;8.02;;;7.18;;
33844;SDS011;20145;43.118;25.694;2023-04-25T04:19:25;8.95;;;8.05;;
33844;SDS011;20145;43.118;25.694;2023-04-25T04:21:51;9.45;;;8.20;;
33844;SDS011;20145;43.118;25.694;2023-04-25T04:24:16;8.93;;;7.97;;
33844;SDS011;20145;43.118;25.694;2023-04-25T04:26:42;9.20;;;8.18;;
33844;SDS011;20145;43.118;25.694;2023-04-25T04:29:09;13.45;;;8.05;;
33844;SDS011;20145;43.118;25.694;2023-04-25T04:31:35;11.20;;;7.07;;
33844;SDS011;20145;43.118;25.694;2023-04-25T04:34:01;17.80;;;7.45;;
33844;SDS011;20145;43.118;25.694;2023-04-25T04:36:28;8.80;;;6.45;;
33844;SDS011;20145;43.118;25.694;2023-04-25T04:38:54;9.45;;;7.13;;
33844;SDS011;20145;43.118;25.694;2023-04-25T04:41:22;17.17;;;8.05;;
33844;SDS011;20145;43.118;25.694;2023-04-25T04:43:48;10.85;;;7.93;;
33844;SDS011;20145;43.118;25.694;2023-04-25T04:46:13;8.55;;;7.50;;
33844;SDS011;20145;43.118;25.694;2023-04-25T04:48:39;7.50;;;6.75;;
33844;SDS011;20145;43.118;25.694;2023-04-25T04:51:05;7.32;;;6.55;;
33844;SDS011;20145;43.118;25.694;2023-04-25T04:53:31;10.45;;;8.80;;
33844;SDS011;20145;43.118;25.694;2023-04-25T04:55:57;10.13;;;7.20;;
33844;SDS011;20145;43.118;25.694;2023-04-25T04:58:23;8.23;;;6.68;;
33844;SDS011;20145;43.118;25.694;2023-04-25T05:00:48;6.65;;;5.97;;
33844;SDS011;20145;43.118;25.694;2023-04-25T05:03:14;12.20;;;6.13;;
33844;SDS011;20145;43.118;25.694;2023-04-25T05:05:41;7.40;;;6.72;;
33844;SDS011;20145;43.118;25.694;2023-04-25T05:08:06;8.85;;;7.50;;
33844;SDS011;20145;43.118;25.694;2023-04-25T05:10:32;6.68;;;6.07;;
33844;SDS011;20145;43.118;25.694;2023-04-25T05:12:58;6.15;;;5.53;;
33844;SDS011;20145;43.118;25.694;2023-04-25T05:15:23;6.20;;;5.60;;
33844;SDS011;20145;43.118;25.694;2023-04-25T05:17:49;7.25;;;5.53;;
33844;SDS011;20145;43.118;25.694;2023-04-25T05:20:15;8.18;;;5.68;;
33844;SDS011;20145;43.118;25.694;2023-04-25T05:22:40;5.95;;;4.85;;
33844;SDS011;20145;43.118;25.694;2023-04-25T05:25:07;7.35;;;6.13;;
33844;SDS011;20145;43.118;25.694;2023-04-25T05:27:33;5.15;;;4.70;;
33844;SDS011;20145;43.118;25.694;2023-04-25T05:29:59;7.40;;;4.93;;
33844;SDS011;20145;43.118;25.694;2023-04-25T05:32:25;7.05;;;4.60;;
33844;SDS011;20145;43.118;25.694;2023-04-25T05:34:50;9.18;;;4.68;;
33844;SDS011;20145;43.118;25.694;2023-04-25T05:37:16;7.50;;;4.78;;
33844;SDS011;20145;43.118;25.694;2023-04-25T05:39:42;6.15;;;4.70;;
33844;SDS011;20145;43.118;25.694;2023-04-25T05:42:08;5.10;;;4.63;;
33844;SDS011;20145;43.118;25.694;2023-04-25T05:44:33;5.57;;;4.40;;
33844;SDS011;20145;43.118;25.694;2023-04-25T05:47:00;5.78;;;5.15;;
33844;SDS011;20145;43.118;25.694;2023-04-25T05:49:25;7.95;;;5.47;;
33844;SDS011;20145;43.118;25.694;2023-04-25T05:51:51;4.75;;;4.30;;
33844;SDS011;20145;43.118;25.694;2023-04-25T05:54:16;4.82;;;4.43;;
33844;SDS011;20145;43.118;25.694;2023-04-25T05:56:42;5.22;;;4.00;;
33844;SDS011;20145;43.118;25.694;2023-04-25T05:59:08;5.13;;;4.05;;
33844;SDS011;20145;43.118;25.694;2023-04-25T06:01:33;5.15;;;3.80;;
33844;SDS011;20145;43.118;25.694;2023-04-25T06:03:59;4.03;;;3.55;;
33844;SDS011;20145;43.118;25.694;2023-04-25T06:06:24;3.33;;;3.03;;
33844;SDS011;20145;43.118;25.694;2023-04-25T06:08:50;4.70;;;3.50;;
33844;SDS011;20145;43.118;25.694;2023-04-25T06:11:16;6.57;;;3.67;;
33844;SDS011;20145;43.118;25.694;2023-04-25T06:13:42;6.15;;;3.33;;
33844;SDS011;20145;43.118;25.694;2023-04-25T06:16:07;4.97;;;3.58;;
33844;SDS011;20145;43.118;25.694;2023-04-25T06:18:33;6.28;;;3.25;;
33844;SDS011;20145;43.118;25.694;2023-04-25T06:20:58;4.40;;;3.78;;
33844;SDS011;20145;43.118;25.694;2023-04-25T06:23:24;4.35;;;3.95;;
33844;SDS011;20145;43.118;25.694;2023-04-25T06:25:49;5.30;;;4.22;;
33844;SDS011;20145;43.118;25.694;2023-04-25T06:28:15;5.45;;;4.15;;
33844;SDS011;20145;43.118;25.694;2023-04-25T06:30:40;10.02;;;5.80;;
33844;SDS011;20145;43.118;25.694;2023-04-25T06:33:06;7.28;;;4.55;;
33844;SDS011;20145;43.118;25.694;2023-04-25T06:35:33;5.82;;;3.65;;
33844;SDS011;20145;43.118;25.694;2023-04-25T06:37:59;5.60;;;3.78;;
33844;SDS011;20145;43.118;25.694;2023-04-25T06:40:25;6.55;;;4.55;;
33844;SDS011;20145;43.118;25.694;2023-04-25T06:42:51;4.70;;;3.55;;
33844;SDS011;20145;43.118;25.694;2023-04-25T06:45:16;3.83;;;3.05;;
33844;SDS011;20145;43.118;25.694;2023-04-25T06:47:42;3.63;;;3.10;;
33844;SDS011;20145;43.118;25.694;2023-04-25T06:50:08;11.68;;;5.93;;
33844;SDS011;20145;43.118;25.694;2023-04-25T06:52:34;11.73;;;6.70;;
33844;SDS011;20145;43.118;25.694;2023-04-25T06:55:00;13.55;;;6.75;;
33844;SDS011;20145;43.118;25.694;2023-04-25T06:57:25;11.07;;;6.93;;
33844;SDS011;20145;43.118;25.694;2023-04-25T06:59:51;11.70;;;5.90;;
33844;SDS011;20145;43.118;25.694;2023-04-25T07:02:16;9.57;;;5.35;;
33844;SDS011;20145;43.118;25.694;2023-04-25T07:04:42;10.23;;;5.07;;
33844;SDS011;20145;43.118;25.694;2023-04-25T07:07:07;11.55;;;4.82;;
33844;SDS011;20145;43.118;25.694;2023-04-25T07:09:33;5.28;;;4.57;;
33844;SDS011;20145;43.118;25.694;2023-04-25T07:12:00;10.05;;;4.47;;
33844;SDS011;20145;43.118;25.694;2023-04-25T07:14:27;7.47;;;4.85;;
33844;SDS011;20145;43.118;25.694;2023-04-25T07:16:52;5.82;;;4.53;;
33844;SDS011;20145;43.118;25.694;2023-04-25T07:19:18;10.52;;;4.88;;
33844;SDS011;20145;43.118;25.694;2023-04-25T07:21:43;8.30;;;4.05;;
33844;SDS011;20145;43.118;25.694;2023-04-25T07:24:09;11.63;;;3.30;;
33844;SDS011;20145;43.118;25.694;2023-04-25T07:26:34;5.50;;;2.78;;
33844;SDS011;20145;43.118;25.694;2023-04-25T07:29:00;5.30;;;3.30;;
33844;SDS011;20145;43.118;25.694;2023-04-25T07:31:26;6.25;;;2.10;;
33844;SDS011;20145;43.118;25.694;2023-04-25T07:33:52;4.18;;;2.25;;
33844;SDS011;20145;43.118;25.694;2023-04-25T07:36:17;5.07;;;2.60;;
33844;SDS011;20145;43.118;25.694;2023-04-25T07:38:43;8.65;;;3.85;;
33844;SDS011;20145;43.118;25.694;2023-04-25T07:41:08;4.22;;;2.70;;
33844;SDS011;20145;43.118;25.694;2023-04-25T07:43:34;14.60;;;6.63;;
33844;SDS011;20145;43.118;25.694;2023-04-25T07:46:01;14.73;;;5.60;;
33844;SDS011;20145;43.118;25.694;2023-04-25T07:48:27;3.20;;;2.30;;
33844;SDS011;20145;43.118;25.694;2023-04-25T07:50:53;5.28;;;2.67;;
33844;SDS011;20145;43.118;25.694;2023-04-25T07:53:18;3.47;;;1.63;;
33844;SDS011;20145;43.118;25.694;2023-04-25T07:55:44;3.67;;;1.75;;
33844;SDS011;20145;43.118;25.694;2023-04-25T07:58:10;2.80;;;2.00;;
33844;SDS011;20145;43.118;25.694;2023-04-25T08:00:36;2.80;;;1.38;;
33844;SDS011;20145;43.118;25.694;2023-04-25T08:03:02;3.25;;;1.90;;
33844;SDS011;20145;43.118;25.694;2023-04-25T08:05:28;1.67;;;1.50;;
33844;SDS011;20145;43.118;25.694;2023-04-25T08:07:54;4.57;;;2.17;;
33844;SDS011;20145;43.118;25.694;2023-04-25T08:10:21;5.97;;;3.45;;
33844;SDS011;20145;43.118;25.694;2023-04-25T08:12:48;5.38;;;3.63;;
33844;SDS011;20145;43.118;25.694;2023-04-25T08:15:13;11.23;;;4.10;;
33844;SDS011;20145;43.118;25.694;2023-04-25T08:17:39;4.80;;;4.03;;
33844;SDS011;20145;43.118;25.694;2023-04-25T08:20:05;5.82;;;3.60;;
33844;SDS011;20145;43.118;25.694;2023-04-25T08:22:31;3.92;;;2.75;;
33844;SDS011;20145;43.118;25.694;2023-04-25T08:24:58;3.40;;;2.80;;
33844;SDS011;20145;43.118;25.694;2023-04-25T08:27:23;3.70;;;2.28;;
33844;SDS011;20145;43.118;25.694;2023-04-25T08:29:49;2.78;;;2.45;;
33844;SDS011;20145;43.118;25.694;2023-04-25T08:32:16;3.72;;;2.80;;
33844;SDS011;20145;43.118;25.694;2023-04-25T08:34:41;8.90;;;2.83;;
33844;SDS011;20145;43.118;25.694;2023-04-25T08:37:09;3.15;;;2.63;;
33844;SDS011;20145;43.118;25.694;2023-04-25T08:39:35;3.85;;;2.75;;
33844;SDS011;20145;43.118;25.694;2023-04-25T08:42:05;4.80;;;3.28;;
33844;SDS011;20145;43.118;25.694;2023-04-25T08:44:35;3.30;;;2.80;;
33844;SDS011;20145;43.118;25.694;2023-04-25T08:47:04;4.35;;;2.40;;
33844;SDS011;20145;43.118;25.694;2023-04-25T08:49:33;3.55;;;2.60;;
33844;SDS011;20145;43.118;25.694;2023-04-25T08:52:00;5.43;;;2.28;;
33844;SDS011;20145;43.118;25.694;2023-04-25T08:54:27;4.63;;;2.38;;
33844;SDS011;20145;43.118;25.694;2023-04-25T08:56:54;5.35;;;2.08;;
33844;SDS011;20145;43.118;25.694;2023-04-25T08:59:21;2.10;;;1.85;;
33844;SDS011;20145;43.118;25.694;2023-04-25T09:01:49;3.47;;;3.05;;
33844;SDS011;20145;43.118;25.694;2023-04-25T09:04:15;2.88;;;2.67;;
33844;SDS011;20145;43.118;25.694;2023-04-25T09:06:41;6.78;;;2.80;;
33844;SDS011;20145;43.118;25.694;2023-04-25T09:09:07;4.70;;;3.45;;
33844;SDS011;20145;43.118;25.694;2023-04-25T09:11:35;3.65;;;3.35;;
33844;SDS011;20145;43.118;25.694;2023-04-25T09:14:11;3.78;;;3.10;;
33844;SDS011;20145;43.118;25.694;2023-04-25T09:19:22;4.28;;;2.95;;
33844;SDS011;20145;43.118;25.694;2023-04-25T09:21:50;2.17;;;1.90;;
33844;SDS011;20145;43.118;25.694;2023-04-25T09:24:16;5.28;;;1.60;;
33844;SDS011;20145;43.118;25.694;2023-04-25T09:26:41;1.83;;;1.52;;
33844;SDS011;20145;43.118;25.694;2023-04-25T09:29:08;3.65;;;1.77;;
33844;SDS011;20145;43.118;25.694;2023-04-25T09:31:34;1.80;;;1.67;;
33844;SDS011;20145;43.118;25.694;2023-04-25T09:34:00;2.38;;;1.85;;
33844;SDS011;20145;43.118;25.694;2023-04-25T09:36:26;1.80;;;1.58;;
33844;SDS011;20145;43.118;25.694;2023-04-25T09:38:52;1.65;;;1.55;;
33844;SDS011;20145;43.118;25.694;2023-04-25T09:41:27;1.52;;;1.42;;
33844;SDS011;20145;43.118;25.694;2023-04-25T09:43:52;4.40;;;1.90;;
33844;SDS011;20145;43.118;25.694;2023-04-25T09:46:22;6.10;;;2.05;;
33844;SDS011;20145;43.118;25.694;2023-04-25T09:48:50;4.43;;;1.88;;
33844;SDS011;20145;43.118;25.694;2023-04-25T09:51:16;2.65;;;2.45;;
33844;SDS011;20145;43.118;25.694;2023-04-25T09:53:43;9.43;;;2.38;;
33844;SDS011;20145;43.118;25.694;2023-04-25T09:56:16;2.13;;;1.60;;
33844;SDS011;20145;43.118;25.694;2023-04-25T09:58:44;8.25;;;1.92;;
33844;SDS011;20145;43.118;25.694;2023-04-25T10:01:10;7.47;;;1.50;;
33844;SDS011;20145;43.118;25.694;2023-04-25T10:03:36;3.00;;;1.50;;
33844;SDS011;20145;43.118;25.694;2023-04-25T10:06:12;4.35;;;1.50;;
33844;SDS011;20145;43.118;25.694;2023-04-25T10:08:39;4.50;;;1.30;;
33844;SDS011;20145;43.118;25.694;2023-04-25T10:11:07;3.05;;;1.20;;
33844;SDS011;20145;43.118;25.694;2023-04-25T10:13:33;2.47;;;1.52;;
33844;SDS011;20145;43.118;25.694;2023-04-25T10:16:03;1.30;;;1.20;;
33844;SDS011;20145;43.118;25.694;2023-04-25T10:18:30;9.13;;;1.85;;
33844;SDS011;20145;43.118;25.694;2023-04-25T10:21:01;6.85;;;2.30;;
33844;SDS011;20145;43.118;25.694;2023-04-25T10:23:29;7.63;;;2.10;;
33844;SDS011;20145;43.118;25.694;2023-04-25T10:25:55;4.55;;;2.40;;
33844;SDS011;20145;43.118;25.694;2023-04-25T10:28:22;2.75;;;1.80;;
33844;SDS011;20145;43.118;25.694;2023-04-25T10:31:01;2.20;;;1.80;;
33844;SDS011;20145;43.118;25.694;2023-04-25T10:33:34;5.05;;;2.15;;
33844;SDS011;20145;43.118;25.694;2023-04-25T10:36:11;2.30;;;2.10;;
33844;SDS011;20145;43.118;25.694;2023-04-25T10:38:38;4.65;;;3.22;;
33844;SDS011;20145;43.118;25.694;2023-04-25T10:41:04;7.40;;;2.72;;
33844;SDS011;20145;43.118;25.694;2023-04-25T10:43:34;2.60;;;2.40;;
33844;SDS011;20145;43.118;25.694;2023-04-25T10:48:38;6.38;;;2.60;;
33844;SDS011;20145;43.118;25.694;2023-04-25T10:51:17;2.50;;;2.30;;
33844;SDS011;20145;43.118;25.694;2023-04-25T10:53:57;4.00;;;2.58;;
33844;SDS011;20145;43.118;25.694;2023-04-25T10:56:26;4.70;;;2.90;;
33844;SDS011;20145;43.118;25.694;2023-04-25T11:01:44;4.15;;;3.42;;
33844;SDS011;20145;43.118;25.694;2023-04-25T11:04:32;3.63;;;2.50;;
33844;SDS011;20145;43.118;25.694;2023-04-25T11:09:30;4.18;;;2.78;;
33844;SDS011;20145;43.118;25.694;2023-04-25T11:11:58;3.35;;;2.50;;
33844;SDS011;20145;43.118;25.694;2023-04-25T11:14:25;6.10;;;4.65;;
33844;SDS011;20145;43.118;25.694;2023-04-25T11:16:55;6.10;;;3.85;;
33844;SDS011;20145;43.118;25.694;2023-04-25T11:19:24;4.35;;;3.90;;
33844;SDS011;20145;43.118;25.694;2023-04-25T11:21:50;3.20;;;2.90;;
33844;SDS011;20145;43.118;25.694;2023-04-25T11:24:30;4.93;;;3.67;;
33844;SDS011;20145;43.118;25.694;2023-04-25T11:26:59;6.13;;;3.90;;
33844;SDS011;20145;43.118;25.694;2023-04-25T11:29:32;7.18;;;4.07;;
33844;SDS011;20145;43.118;25.694;2023-04-25T11:31:59;7.63;;;4.03;;
33844;SDS011;20145;43.118;25.694;2023-04-25T11:34:29;7.25;;;3.95;;
33844;SDS011;20145;43.118;25.694;2023-04-25T11:36:55;5.15;;;3.83;;
33844;SDS011;20145;43.118;25.694;2023-04-25T11:39:21;7.68;;;3.72;;
33844;SDS011;20145;43.118;25.694;2023-04-25T11:41:49;5.95;;;4.18;;
33844;SDS011;20145;43.118;25.694;2023-04-25T11:44:16;5.75;;;3.70;;
33844;SDS011;20145;43.118;25.694;2023-04-25T11:46:42;4.45;;;3.38;;
33844;SDS011;20145;43.118;25.694;2023-04-25T11:49:08;5.82;;;2.63;;
33844;SDS011;20145;43.118;25.694;2023-04-25T11:51:40;3.88;;;3.47;;
33844;SDS011;20145;43.118;25.694;2023-04-25T11:54:08;4.72;;;2.55;;
33844;SDS011;20145;43.118;25.694;2023-04-25T11:56:34;2.83;;;2.63;;
33844;SDS011;20145;43.118;25.694;2023-04-25T11:59:03;3.65;;;2.85;;
33844;SDS011;20145;43.118;25.694;2023-04-25T12:01:31;5.22;;;2.85;;
33844;SDS011;20145;43.118;25.694;2023-04-25T12:03:58;4.65;;;2.85;;
33844;SDS011;20145;43.118;25.694;2023-04-25T12:06:30;4.30;;;2.65;;
33844;SDS011;20145;43.118;25.694;2023-04-25T12:09:00;8.65;;;3.28;;
33844;SDS011;20145;43.118;25.694;2023-04-25T12:11:32;4.90;;;2.83;;
33844;SDS011;20145;43.118;25.694;2023-04-25T12:14:04;3.33;;;3.03;;
33844;SDS011;20145;43.118;25.694;2023-04-25T12:16:45;4.15;;;2.88;;
33844;SDS011;20145;43.118;25.694;2023-04-25T12:19:15;3.08;;;2.78;;
33844;SDS011;20145;43.118;25.694;2023-04-25T12:21:41;5.38;;;3.30;;
33844;SDS011;20145;43.118;25.694;2023-04-25T12:29:19;3.20;;;2.65;;
33844;SDS011;20145;43.118;25.694;2023-04-25T12:31:49;6.32;;;2.03;;
33844;SDS011;20145;43.118;25.694;2023-04-25T12:34:16;5.18;;;2.05;;
33844;SDS011;20145;43.118;25.694;2023-04-25T12:36:43;3.15;;;2.47;;
33844;SDS011;20145;43.118;25.694;2023-04-25T12:39:08;4.32;;;2.03;;
33844;SDS011;20145;43.118;25.694;2023-04-25T12:41:43;1.73;;;1.63;;
33844;SDS011;20145;43.118;25.694;2023-04-25T12:44:09;3.25;;;2.40;;
33844;SDS011;20145;43.118;25.694;2023-04-25T12:46:35;1.65;;;1.55;;
33844;SDS011;20145;43.118;25.694;2023-04-25T12:49:01;4.47;;;4.07;;
33844;SDS011;20145;43.118;25.694;2023-04-25T12:51:28;3.35;;;2.88;;
33844;SDS011;20145;43.118;25.694;2023-04-25T12:53:54;1.80;;;1.70;;
33844;SDS011;20145;43.118;25.694;2023-04-25T12:56:19;3.22;;;1.65;;
33844;SDS011;20145;43.118;25.694;2023-04-25T12:58:45;1.55;;;1.45;;
33844;SDS011;20145;43.118;25.694;2023-04-25T13:01:11;7.88;;;1.85;;
33844;SDS011;20145;43.118;25.694;2023-04-25T13:03:38;2.17;;;1.70;;
33844;SDS011;20145;43.118;25.694;2023-04-25T13:06:04;4.85;;;3.10;;
33844;SDS011;20145;43.118;25.694;2023-04-25T13:08:30;5.70;;;2.25;;
33844;SDS011;20145;43.118;25.694;2023-04-25T13:10:56;4.88;;;2.40;;
33844;SDS011;20145;43.118;25.694;2023-04-25T13:13:21;2.50;;;2.05;;
33844;SDS011;20145;43.118;25.694;2023-04-25T13:15:47;5.00;;;1.70;;
33844;SDS011;20145;43.118;25.694;2023-04-25T13:18:13;3.22;;;1.90;;
33844;SDS011;20145;43.118;25.694;2023-04-25T13:20:38;4.18;;;2.20;;
33844;SDS011;20145;43.118;25.694;2023-04-25T13:23:04;3.22;;;2.15;;
33844;SDS011;20145;43.118;25.694;2023-04-25T13:25:29;4.68;;;2.08;;
33844;SDS011;20145;43.118;25.694;2023-04-25T13:27:55;2.42;;;2.22;;
33844;SDS011;20145;43.118;25.694;2023-04-25T13:30:20;10.00;;;6.15;;
33844;SDS011;20145;43.118;25.694;2023-04-25T13:32:46;3.03;;;2.55;;
33844;SDS011;20145;43.118;25.694;2023-04-25T13:35:13;2.88;;;2.67;;
33844;SDS011;20145;43.118;25.694;2023-04-25T13:37:39;3.00;;;2.70;;
33844;SDS011;20145;43.118;25.694;2023-04-25T13:40:06;5.05;;;3.17;;
33844;SDS011;20145;43.118;25.694;2023-04-25T13:42:35;8.63;;;7.72;;
33844;SDS011;20145;43.118;25.694;2023-04-25T13:45:01;7.88;;;5.82;;
33844;SDS011;20145;43.118;25.694;2023-04-25T13:47:28;4.45;;;4.00;;
33844;SDS011;20145;43.118;25.694;2023-04-25T13:49:54;4.93;;;3.22;;
33844;SDS011;20145;43.118;25.694;2023-04-25T13:52:19;3.63;;;3.10;;
33844;SDS011;20145;43.118;25.694;2023-04-25T13:54:45;7.43;;;2.83;;
33844;SDS011;20145;43.118;25.694;2023-04-25T13:57:11;6.13;;;2.47;;
33844;SDS011;20145;43.118;25.694;2023-04-25T13:59:37;4.75;;;3.40;;
33844;SDS011;20145;43.118;25.694;2023-04-25T14:02:03;4.55;;;3.42;;
33844;SDS011;20145;43.118;25.694;2023-04-25T14:04:29;4.10;;;3.70;;
33844;SDS011;20145;43.118;25.694;2023-04-25T14:06:55;5.85;;;5.13;;
33844;SDS011;20145;43.118;25.694;2023-04-25T14:09:21;4.32;;;3.22;;
33844;SDS011;20145;43.118;25.694;2023-04-25T14:11:51;5.00;;;2.90;;
33844;SDS011;20145;43.118;25.694;2023-04-25T14:14:17;3.42;;;2.50;;
33844;SDS011;20145;43.118;25.694;2023-04-25T14:16:44;3.63;;;3.33;;
33844;SDS011;20145;43.118;25.694;2023-04-25T14:19:10;4.55;;;2.72;;
33844;SDS011;20145;43.118;25.694;2023-04-25T14:21:35;8.43;;;3.00;;
33844;SDS011;20145;43.118;25.694;2023-04-25T14:24:01;2.80;;;2.60;;
33844;SDS011;20145;43.118;25.694;2023-04-25T14:26:26;3.30;;;2.80;;
33844;SDS011;20145;43.118;25.694;2023-04-25T14:28:52;5.22;;;2.63;;
33844;SDS011;20145;43.118;25.694;2023-04-25T14:31:18;4.97;;;3.17;;
33844;SDS011;20145;43.118;25.694;2023-04-25T14:33:44;3.92;;;3.03;;
33844;SDS011;20145;43.118;25.694;2023-04-25T14:36:10;3.22;;;2.63;;
33844;SDS011;20145;43.118;25.694;2023-04-25T14:38:36;5.25;;;2.42;;